DLH36D EDDK-EDDN
Flight info
| Callsign | DLH36D |
|---|---|
| Flight time | 0h 44m |
| Altitude | 23000 |
| Route | KUMIK8F KUMIK L603 TESGA Z719 ETOLU Z723 KOMIB T193 ERTES T194 DODAS DODAS1T |
| Aircraft | A20N/M-SDE2E3FGHIRWXY/LB1 |
Departure
| Time | 2026-04-22 07:29 |
|---|---|
| Airport | Cologne Bonn Airport (EDDK) |
Arrival
| Time | 2026-04-22 08:13 |
|---|---|
| Airport | Nuremberg Airport (EDDN) |
| Time | Latitude | Longitude | Altitude | Speed | Heading |
|---|---|---|---|---|---|
| 2026-04-22 07:08 | 50.87981 | 7.12372 | 235 ft | 0 kts | 215° |
| 2026-04-22 07:23 | 50.87988 | 7.12379 | 233 ft | 3 kts | 215° |
| 2026-04-22 07:23 | 50.88003 | 7.12396 | 236 ft | 3 kts | 215° |
| 2026-04-22 07:24 | 50.88018 | 7.12413 | 236 ft | 2 kts | 213° |
| 2026-04-22 07:24 | 50.88035 | 7.12422 | 237 ft | 2 kts | 177° |
| 2026-04-22 07:24 | 50.88052 | 7.12417 | 235 ft | 2 kts | 147° |
| 2026-04-22 07:24 | 50.88056 | 7.12414 | 235 ft | 0 kts | 134° |
| 2026-04-22 07:25 | 50.88060 | 7.12405 | 234 ft | 3 kts | 126° |
| 2026-04-22 07:25 | 50.88063 | 7.12399 | 236 ft | 0 kts | 130° |
| 2026-04-22 07:27 | 50.88063 | 7.12400 | 236 ft | 0 kts | 130° |
| 2026-04-22 07:27 | 50.88048 | 7.12435 | 234 ft | 7 kts | 119° |
| 2026-04-22 07:27 | 50.88012 | 7.12536 | 235 ft | 13 kts | 121° |
| 2026-04-22 07:28 | 50.87992 | 7.12745 | 237 ft | 9 kts | 62° |
| 2026-04-22 07:28 | 50.88008 | 7.12884 | 240 ft | 17 kts | 95° |
| 2026-04-22 07:28 | 50.87935 | 7.13069 | 244 ft | 24 kts | 140° |
| 2026-04-22 07:29 | 50.87705 | 7.13402 | 249 ft | 75 kts | 137° |
| 2026-04-22 07:29 | 50.87159 | 7.14201 | 261 ft | 137 kts | 137° |
| 2026-04-22 07:29 | 50.86378 | 7.15328 | 520 ft | 159 kts | 135° |
| 2026-04-22 07:29 | 50.85549 | 7.16521 | 1131 ft | 163 kts | 136° |
| 2026-04-22 07:30 | 50.84688 | 7.17762 | 1696 ft | 177 kts | 136° |
| 2026-04-22 07:30 | 50.83707 | 7.19149 | 1937 ft | 205 kts | 136° |
| 2026-04-22 07:30 | 50.82660 | 7.20936 | 2347 ft | 233 kts | 124° |
| 2026-04-22 07:30 | 50.81804 | 7.23156 | 3215 ft | 240 kts | 111° |
| 2026-04-22 07:31 | 50.81301 | 7.25693 | 4104 ft | 244 kts | 103° |
| 2026-04-22 07:31 | 50.80964 | 7.28342 | 5014 ft | 247 kts | 98° |
| 2026-04-22 07:31 | 50.80720 | 7.31042 | 5923 ft | 249 kts | 96° |
| 2026-04-22 07:31 | 50.80516 | 7.33763 | 6910 ft | 250 kts | 95° |
| 2026-04-22 07:32 | 50.80317 | 7.36508 | 7806 ft | 253 kts | 95° |
| 2026-04-22 07:32 | 50.80108 | 7.39285 | 8667 ft | 257 kts | 96° |
| 2026-04-22 07:32 | 50.79881 | 7.42109 | 9569 ft | 260 kts | 96° |
| 2026-04-22 07:32 | 50.79640 | 7.44973 | 10395 ft | 268 kts | 96° |
| 2026-04-22 07:33 | 50.79378 | 7.48019 | 10767 ft | 291 kts | 96° |
| 2026-04-22 07:33 | 50.79089 | 7.51321 | 11082 ft | 315 kts | 96° |
| 2026-04-22 07:33 | 50.78774 | 7.54859 | 11460 ft | 334 kts | 97° |
| 2026-04-22 07:33 | 50.78587 | 7.58573 | 12112 ft | 342 kts | 88° |
| 2026-04-22 07:34 | 50.78758 | 7.62344 | 12932 ft | 347 kts | 83° |
| 2026-04-22 07:34 | 50.79067 | 7.66143 | 13702 ft | 349 kts | 81° |
| 2026-04-22 07:34 | 50.79456 | 7.69949 | 14193 ft | 353 kts | 79° |
| 2026-04-22 07:34 | 50.79890 | 7.73782 | 14323 ft | 355 kts | 79° |
| 2026-04-22 07:35 | 50.80342 | 7.77627 | 14541 ft | 359 kts | 79° |
| 2026-04-22 07:35 | 50.80800 | 7.81525 | 15277 ft | 361 kts | 79° |
| 2026-04-22 07:35 | 50.81251 | 7.85439 | 16101 ft | 364 kts | 79° |
| 2026-04-22 07:35 | 50.81699 | 7.89392 | 16863 ft | 367 kts | 79° |
| 2026-04-22 07:36 | 50.82139 | 7.93338 | 17600 ft | 371 kts | 79° |
| 2026-04-22 07:36 | 50.82584 | 7.97378 | 18333 ft | 374 kts | 79° |
| 2026-04-22 07:36 | 50.82924 | 8.01480 | 18981 ft | 380 kts | 85° |
| 2026-04-22 07:36 | 50.82841 | 8.05697 | 19544 ft | 388 kts | 95° |
| 2026-04-22 07:37 | 50.82184 | 8.09856 | 20153 ft | 395 kts | 108° |
| 2026-04-22 07:37 | 50.80985 | 8.13804 | 20788 ft | 401 kts | 116° |
| 2026-04-22 07:37 | 50.79547 | 8.17616 | 21387 ft | 406 kts | 119° |
| 2026-04-22 07:37 | 50.77982 | 8.21351 | 21975 ft | 410 kts | 121° |
| 2026-04-22 07:38 | 50.76351 | 8.25081 | 22544 ft | 414 kts | 121° |
| 2026-04-22 07:38 | 50.74694 | 8.28834 | 23088 ft | 418 kts | 121° |
| 2026-04-22 07:38 | 50.73035 | 8.32617 | 23309 ft | 420 kts | 121° |
| 2026-04-22 07:38 | 50.71355 | 8.36393 | 23330 ft | 421 kts | 124° |
| 2026-04-22 07:39 | 50.69381 | 8.39838 | 23333 ft | 426 kts | 134° |
| 2026-04-22 07:39 | 50.67017 | 8.42701 | 23354 ft | 430 kts | 143° |
| 2026-04-22 07:39 | 50.64473 | 8.45200 | 23351 ft | 432 kts | 146° |
| 2026-04-22 07:39 | 50.61842 | 8.47525 | 23350 ft | 434 kts | 148° |
| 2026-04-22 07:40 | 50.59179 | 8.49751 | 23353 ft | 434 kts | 149° |
| 2026-04-22 07:40 | 50.56497 | 8.51947 | 23361 ft | 434 kts | 149° |
| 2026-04-22 07:40 | 50.53813 | 8.54142 | 23350 ft | 435 kts | 149° |
| 2026-04-22 07:40 | 50.51135 | 8.56344 | 23349 ft | 435 kts | 149° |
| 2026-04-22 07:41 | 50.48455 | 8.58564 | 23349 ft | 435 kts | 149° |
| 2026-04-22 07:41 | 50.45808 | 8.60849 | 23342 ft | 434 kts | 144° |
| 2026-04-22 07:41 | 50.43399 | 8.63566 | 23344 ft | 431 kts | 139° |
| 2026-04-22 07:41 | 50.41065 | 8.66504 | 23344 ft | 430 kts | 137° |
| 2026-04-22 07:42 | 50.38777 | 8.69542 | 23344 ft | 430 kts | 136° |
| 2026-04-22 07:42 | 50.36522 | 8.72620 | 23330 ft | 430 kts | 135° |
| 2026-04-22 07:42 | 50.34278 | 8.75714 | 23329 ft | 430 kts | 135° |
| 2026-04-22 07:42 | 50.32038 | 8.78803 | 23329 ft | 430 kts | 135° |
| 2026-04-22 07:43 | 50.29820 | 8.81938 | 23325 ft | 427 kts | 131° |
| 2026-04-22 07:43 | 50.28016 | 8.85566 | 23328 ft | 421 kts | 117° |
| 2026-04-22 07:43 | 50.26761 | 8.89670 | 23324 ft | 417 kts | 110° |
| 2026-04-22 07:43 | 50.25698 | 8.93889 | 23319 ft | 417 kts | 107° |
| 2026-04-22 07:44 | 50.24734 | 8.98149 | 23319 ft | 416 kts | 106° |
| 2026-04-22 07:44 | 50.23815 | 9.02440 | 23320 ft | 416 kts | 105° |
| 2026-04-22 07:44 | 50.22909 | 9.06736 | 23319 ft | 416 kts | 105° |
| 2026-04-22 07:44 | 50.22002 | 9.11021 | 23320 ft | 416 kts | 105° |
| 2026-04-22 07:45 | 50.21083 | 9.15310 | 23318 ft | 416 kts | 106° |
| 2026-04-22 07:45 | 50.20156 | 9.19584 | 23329 ft | 416 kts | 106° |
| 2026-04-22 07:45 | 50.19220 | 9.23866 | 23316 ft | 417 kts | 105° |
| 2026-04-22 07:45 | 50.18516 | 9.28226 | 23313 ft | 414 kts | 96° |
| 2026-04-22 07:46 | 50.18255 | 9.32686 | 23313 ft | 412 kts | 90° |
| 2026-04-22 07:46 | 50.18176 | 9.37154 | 23310 ft | 411 kts | 88° |
| 2026-04-22 07:46 | 50.18191 | 9.41611 | 23309 ft | 411 kts | 87° |
| 2026-04-22 07:46 | 50.18254 | 9.46074 | 23309 ft | 411 kts | 86° |
| 2026-04-22 07:47 | 50.18332 | 9.50527 | 23308 ft | 411 kts | 86° |
| 2026-04-22 07:47 | 50.18411 | 9.54990 | 23308 ft | 411 kts | 86° |
| 2026-04-22 07:47 | 50.18482 | 9.59449 | 23303 ft | 411 kts | 86° |
| 2026-04-22 07:47 | 50.18545 | 9.63910 | 23303 ft | 411 kts | 86° |
| 2026-04-22 07:48 | 50.18600 | 9.68377 | 23318 ft | 411 kts | 86° |
| 2026-04-22 07:48 | 50.18649 | 9.72783 | 23308 ft | 411 kts | 86° |
| 2026-04-22 07:48 | 50.18694 | 9.77301 | 23320 ft | 411 kts | 87° |
| 2026-04-22 07:48 | 50.18735 | 9.81767 | 23319 ft | 411 kts | 87° |
| 2026-04-22 07:49 | 50.18776 | 9.86174 | 23335 ft | 411 kts | 87° |
| 2026-04-22 07:49 | 50.18816 | 9.90631 | 23336 ft | 411 kts | 87° |
| 2026-04-22 07:49 | 50.18839 | 9.95100 | 23336 ft | 412 kts | 89° |
| 2026-04-22 07:49 | 50.18526 | 9.99550 | 23337 ft | 415 kts | 99° |
| 2026-04-22 07:50 | 50.17664 | 10.03867 | 23337 ft | 419 kts | 111° |
| 2026-04-22 07:50 | 50.16210 | 10.07826 | 23340 ft | 424 kts | 121° |
| 2026-04-22 07:50 | 50.14454 | 10.11539 | 23336 ft | 425 kts | 125° |
| 2026-04-22 07:50 | 50.12569 | 10.15108 | 23336 ft | 427 kts | 127° |
| 2026-04-22 07:51 | 50.10626 | 10.18603 | 23336 ft | 427 kts | 128° |
| 2026-04-22 07:51 | 50.08684 | 10.22106 | 23324 ft | 426 kts | 124° |
| 2026-04-22 07:51 | 50.07051 | 10.25919 | 23338 ft | 422 kts | 117° |
| 2026-04-22 07:51 | 50.05631 | 10.29900 | 23322 ft | 422 kts | 115° |
| 2026-04-22 07:52 | 50.04273 | 10.34059 | 23001 ft | 439 kts | 113° |
| 2026-04-22 07:52 | 50.02941 | 10.38371 | 22717 ft | 442 kts | 112° |
| 2026-04-22 07:52 | 50.01638 | 10.42682 | 22435 ft | 440 kts | 112° |
| 2026-04-22 07:52 | 50.00343 | 10.46982 | 22160 ft | 438 kts | 112° |
| 2026-04-22 07:53 | 49.99046 | 10.51266 | 21898 ft | 436 kts | 112° |
| 2026-04-22 07:53 | 49.97736 | 10.55511 | 21647 ft | 435 kts | 115° |
| 2026-04-22 07:53 | 49.96072 | 10.59439 | 21382 ft | 438 kts | 126° |
| 2026-04-22 07:53 | 49.93854 | 10.62703 | 21114 ft | 442 kts | 141° |
| 2026-04-22 07:54 | 49.91142 | 10.64972 | 20863 ft | 446 kts | 154° |
| 2026-04-22 07:54 | 49.88237 | 10.66654 | 20608 ft | 446 kts | 158° |
| 2026-04-22 07:54 | 49.86293 | 10.67690 | 20438 ft | 445 kts | 158° |
| 2026-04-22 07:54 | 49.83363 | 10.69225 | 20184 ft | 443 kts | 158° |
| 2026-04-22 07:55 | 49.80469 | 10.70819 | 19930 ft | 441 kts | 155° |
| 2026-04-22 07:55 | 49.77705 | 10.72813 | 19679 ft | 435 kts | 146° |
| 2026-04-22 07:55 | 49.75331 | 10.75641 | 19431 ft | 428 kts | 131° |
| 2026-04-22 07:55 | 49.73561 | 10.79258 | 19196 ft | 420 kts | 116° |
| 2026-04-22 07:56 | 49.72486 | 10.83404 | 18947 ft | 413 kts | 102° |
| 2026-04-22 07:56 | 49.71947 | 10.87737 | 18712 ft | 410 kts | 96° |
| 2026-04-22 07:56 | 49.71538 | 10.92094 | 18469 ft | 408 kts | 95° |
| 2026-04-22 07:56 | 49.71143 | 10.96424 | 18191 ft | 407 kts | 95° |
| 2026-04-22 07:57 | 49.70741 | 11.00736 | 17918 ft | 405 kts | 96° |
| 2026-04-22 07:57 | 49.70332 | 11.05031 | 17645 ft | 403 kts | 96° |
| 2026-04-22 07:57 | 49.69875 | 11.09297 | 17371 ft | 402 kts | 100° |
| 2026-04-22 07:57 | 49.68870 | 11.13329 | 17095 ft | 407 kts | 117° |
| 2026-04-22 07:58 | 49.67057 | 11.16680 | 16698 ft | 408 kts | 136° |
| 2026-04-22 07:58 | 49.64633 | 11.18954 | 16033 ft | 413 kts | 155° |
| 2026-04-22 07:58 | 49.61818 | 11.19873 | 15351 ft | 417 kts | 175° |
| 2026-04-22 07:58 | 49.58950 | 11.19300 | 14724 ft | 419 kts | 195° |
| 2026-04-22 07:59 | 49.56353 | 11.17284 | 14108 ft | 420 kts | 216° |
| 2026-04-22 07:59 | 49.54371 | 11.14103 | 13487 ft | 417 kts | 236° |
| 2026-04-22 07:59 | 49.53200 | 11.10032 | 12983 ft | 409 kts | 258° |
| 2026-04-22 07:59 | 49.53023 | 11.05799 | 12489 ft | 397 kts | 279° |
| 2026-04-22 08:00 | 49.53827 | 11.01864 | 12091 ft | 379 kts | 302° |
| 2026-04-22 08:00 | 49.55461 | 10.98831 | 11705 ft | 361 kts | 326° |
| 2026-04-22 08:00 | 49.57533 | 10.96825 | 11421 ft | 347 kts | 331° |
| 2026-04-22 08:00 | 49.59332 | 10.94317 | 11116 ft | 345 kts | 310° |
| 2026-04-22 08:01 | 49.60410 | 10.91072 | 10824 ft | 336 kts | 292° |
| 2026-04-22 08:01 | 49.61108 | 10.87712 | 10528 ft | 322 kts | 289° |
| 2026-04-22 08:01 | 49.61802 | 10.84559 | 10249 ft | 308 kts | 294° |
| 2026-04-22 08:01 | 49.62397 | 10.81435 | 9927 ft | 302 kts | 286° |
| 2026-04-22 08:02 | 49.62834 | 10.78271 | 9617 ft | 302 kts | 281° |
| 2026-04-22 08:02 | 49.63142 | 10.75113 | 9346 ft | 292 kts | 280° |
| 2026-04-22 08:02 | 49.63427 | 10.72073 | 9088 ft | 280 kts | 280° |
| 2026-04-22 08:02 | 49.63698 | 10.69166 | 8859 ft | 268 kts | 280° |
| 2026-04-22 08:03 | 49.63962 | 10.66352 | 8620 ft | 264 kts | 280° |
| 2026-04-22 08:03 | 49.64225 | 10.63558 | 8315 ft | 263 kts | 280° |
| 2026-04-22 08:03 | 49.64486 | 10.60767 | 7994 ft | 262 kts | 279° |
| 2026-04-22 08:03 | 49.64551 | 10.57983 | 7711 ft | 258 kts | 263° |
| 2026-04-22 08:04 | 49.64011 | 10.55377 | 7373 ft | 256 kts | 238° |
| 2026-04-22 08:04 | 49.62852 | 10.53382 | 7120 ft | 243 kts | 212° |
| 2026-04-22 08:04 | 49.61401 | 10.52323 | 6945 ft | 222 kts | 191° |
| 2026-04-22 08:04 | 49.59921 | 10.51869 | 6606 ft | 217 kts | 184° |
| 2026-04-22 08:05 | 49.58443 | 10.51751 | 6239 ft | 209 kts | 170° |
| 2026-04-22 08:05 | 49.57076 | 10.52278 | 5959 ft | 197 kts | 151° |
| 2026-04-22 08:05 | 49.55976 | 10.53387 | 5734 ft | 184 kts | 133° |
| 2026-04-22 08:05 | 49.55215 | 10.54903 | 5502 ft | 177 kts | 110° |
| 2026-04-22 08:06 | 49.54889 | 10.56716 | 5433 ft | 176 kts | 99° |
| 2026-04-22 08:06 | 49.54694 | 10.58580 | 5429 ft | 177 kts | 97° |
| 2026-04-22 08:06 | 49.54520 | 10.60455 | 5436 ft | 177 kts | 97° |
| 2026-04-22 08:06 | 49.54341 | 10.62329 | 5434 ft | 177 kts | 97° |
| 2026-04-22 08:07 | 49.54157 | 10.64199 | 5431 ft | 177 kts | 97° |
| 2026-04-22 08:07 | 49.53972 | 10.66073 | 5432 ft | 177 kts | 97° |
| 2026-04-22 08:07 | 49.53787 | 10.67949 | 5434 ft | 177 kts | 97° |
| 2026-04-22 08:07 | 49.53604 | 10.69822 | 5433 ft | 177 kts | 97° |
| 2026-04-22 08:08 | 49.53419 | 10.71702 | 5432 ft | 178 kts | 97° |
| 2026-04-22 08:08 | 49.53234 | 10.73580 | 5388 ft | 177 kts | 97° |
| 2026-04-22 08:08 | 49.53051 | 10.75447 | 5203 ft | 175 kts | 97° |
| 2026-04-22 08:08 | 49.52868 | 10.77303 | 4911 ft | 175 kts | 97° |
| 2026-04-22 08:09 | 49.52686 | 10.79159 | 4631 ft | 176 kts | 97° |
| 2026-04-22 08:09 | 49.52504 | 10.81015 | 4361 ft | 175 kts | 97° |
| 2026-04-22 08:09 | 49.52321 | 10.82874 | 4108 ft | 176 kts | 97° |
| 2026-04-22 08:09 | 49.52137 | 10.84743 | 3891 ft | 177 kts | 97° |
| 2026-04-22 08:10 | 49.51953 | 10.86620 | 3633 ft | 177 kts | 97° |
| 2026-04-22 08:10 | 49.51769 | 10.88487 | 3385 ft | 176 kts | 97° |
| 2026-04-22 08:10 | 49.51589 | 10.90327 | 3147 ft | 176 kts | 97° |
| 2026-04-22 08:10 | 49.51406 | 10.92187 | 2907 ft | 176 kts | 97° |
| 2026-04-22 08:11 | 49.51222 | 10.94055 | 2657 ft | 171 kts | 97° |
| 2026-04-22 08:11 | 49.51053 | 10.95765 | 2474 ft | 152 kts | 97° |
| 2026-04-22 08:11 | 49.50904 | 10.97282 | 2234 ft | 139 kts | 97° |
| 2026-04-22 08:11 | 49.50767 | 10.98678 | 2049 ft | 126 kts | 96° |
| 2026-04-22 08:12 | 49.50635 | 11.00034 | 1864 ft | 129 kts | 97° |
| 2026-04-22 08:12 | 49.50500 | 11.01402 | 1690 ft | 131 kts | 97° |
| 2026-04-22 08:12 | 49.50360 | 11.02821 | 1487 ft | 133 kts | 99° |
| 2026-04-22 08:12 | 49.50223 | 11.04210 | 1282 ft | 131 kts | 99° |
| 2026-04-22 08:13 | 49.50090 | 11.05572 | 1108 ft | 128 kts | 99° |
| 2026-04-22 08:13 | 49.49957 | 11.06888 | 1022 ft | 116 kts | 99° |
| 2026-04-22 08:13 | 49.49853 | 11.07967 | 1036 ft | 79 kts | 98° |
| 2026-04-22 08:13 | 49.49807 | 11.08442 | 1032 ft | 33 kts | 98° |
| 2026-04-22 08:14 | 49.49729 | 11.08564 | 1033 ft | 7 kts | 185° |
| 2026-04-22 08:14 | 49.49723 | 11.08562 | 1033 ft | 0 kts | 193° |
| 2026-04-22 08:14 | 49.49719 | 11.08561 | 1033 ft | 3 kts | 195° |
| 2026-04-22 08:14 | 49.49674 | 11.08508 | 1034 ft | 15 kts | 235° |
| 2026-04-22 08:15 | 49.49581 | 11.08364 | 1035 ft | 20 kts | 191° |
| 2026-04-22 08:15 | 49.49542 | 11.08221 | 1033 ft | 19 kts | 279° |
| 2026-04-22 08:15 | 49.49564 | 11.08001 | 1033 ft | 21 kts | 278° |
| 2026-04-22 08:15 | 49.49550 | 11.07863 | 1032 ft | 10 kts | 204° |
| 2026-04-22 08:16 | 49.49512 | 11.07857 | 1031 ft | 1 kts | 187° |
| 2026-04-22 08:16 | 49.49511 | 11.07857 | 1031 ft | 0 kts | 187° |